sensor_id;sensor_type;location;lat;lon;timestamp;P1;P2;P0
62981;PMS5003;49075;53.988;27.678;2023-05-24T00:01:40;35.2;32.2;23.8
62981;PMS5003;49075;53.988;27.678;2023-05-24T00:06:40;42.8;37.4;25.8
62981;PMS5003;49075;53.988;27.678;2023-05-24T00:11:28;32.4;30.2;21.2
62981;PMS5003;49075;53.988;27.678;2023-05-24T00:16:28;36.2;33.4;24.4
62981;PMS5003;49075;53.988;27.678;2023-05-24T00:21:46;37;33.6;23.6
62981;PMS5003;49075;53.988;27.678;2023-05-24T00:26:40;38.6;33.6;24.6
62981;PMS5003;49075;53.988;27.678;2023-05-24T00:31:40;37.6;33.6;23.4
62981;PMS5003;49075;53.988;27.678;2023-05-24T00:36:28;37.8;33.8;24.4
62981;PMS5003;49075;53.988;27.678;2023-05-24T00:41:40;33.4;30.8;22.4
62981;PMS5003;49075;53.988;27.678;2023-05-24T00:46:29;42;36.5;25.5
62981;PMS5003;49075;53.988;27.678;2023-05-24T00:51:40;41.6;35.8;24
62981;PMS5003;49075;53.988;27.678;2023-05-24T00:56:28;40.2;35.2;24.6
62981;PMS5003;49075;53.988;27.678;2023-05-24T01:01:28;38.8;34.6;24.6
62981;PMS5003;49075;53.988;27.678;2023-05-24T01:06:37;40;35.6;25
62981;PMS5003;49075;53.988;27.678;2023-05-24T01:11:32;41.8;36;25.6
62981;PMS5003;49075;53.988;27.678;2023-05-24T01:16:43;38.8;34.8;24.6
62981;PMS5003;49075;53.988;27.678;2023-05-24T01:21:50;40.8;35.2;24.4
62981;PMS5003;49075;53.988;27.678;2023-05-24T01:26:41;42.2;37;26
62981;PMS5003;49075;53.988;27.678;2023-05-24T01:31:28;45.8;39.6;27.4
62981;PMS5003;49075;53.988;27.678;2023-05-24T01:36:28;40.4;35.4;24.8
62981;PMS5003;49075;53.988;27.678;2023-05-24T01:41:48;44.8;38.4;26.8
62981;PMS5003;49075;53.988;27.678;2023-05-24T01:46:40;42.4;36.6;25.6
62981;PMS5003;49075;53.988;27.678;2023-05-24T01:51:30;43;36;25
62981;PMS5003;49075;53.988;27.678;2023-05-24T01:56:28;38;34.4;24.8
62981;PMS5003;49075;53.988;27.678;2023-05-24T02:01:54;41.4;36.2;26
62981;PMS5003;49075;53.988;27.678;2023-05-24T02:06:46;43.2;37;26.2
62981;PMS5003;49075;53.988;27.678;2023-05-24T02:11:28;39.6;35;25.8
62981;PMS5003;49075;53.988;27.678;2023-05-24T02:16:28;41.8;36.4;25.8
62981;PMS5003;49075;53.988;27.678;2023-05-24T02:21:28;40.4;34.8;24.8
62981;PMS5003;49075;53.988;27.678;2023-05-24T02:26:29;41.6;35.6;24.6
62981;PMS5003;49075;53.988;27.678;2023-05-24T02:31:29;43.2;37;25.4
62981;PMS5003;49075;53.988;27.678;2023-05-24T02:36:29;42.8;36.4;26.4
62981;PMS5003;49075;53.988;27.678;2023-05-24T02:41:28;40.8;35.8;25.4
62981;PMS5003;49075;53.988;27.678;2023-05-24T02:46:41;44;38;26.2
62981;PMS5003;49075;53.988;27.678;2023-05-24T02:51:41;43.8;38;26.8
62981;PMS5003;49075;53.988;27.678;2023-05-24T02:56:52;42.6;36.8;26
62981;PMS5003;49075;53.988;27.678;2023-05-24T03:01:35;44.4;38;26.6
62981;PMS5003;49075;53.988;27.678;2023-05-24T03:06:40;45.4;38.4;27.4
62981;PMS5003;49075;53.988;27.678;2023-05-24T03:11:28;44.6;37.4;25.8
62981;PMS5003;49075;53.988;27.678;2023-05-24T03:16:41;41.8;36.6;25.8
62981;PMS5003;49075;53.988;27.678;2023-05-24T03:21:47;44.2;38;27
62981;PMS5003;49075;53.988;27.678;2023-05-24T03:26:29;46;39;27
62981;PMS5003;49075;53.988;27.678;2023-05-24T03:31:55;47;39.8;27.4
62981;PMS5003;49075;53.988;27.678;2023-05-24T03:36:47;47.2;39.2;26.8
62981;PMS5003;49075;53.988;27.678;2023-05-24T03:41:53;47;40;26.8
62981;PMS5003;49075;53.988;27.678;2023-05-24T03:46:49;44.6;38.4;26.8
62981;PMS5003;49075;53.988;27.678;2023-05-24T03:51:41;41;35.3;24.5
62981;PMS5003;49075;53.988;27.678;2023-05-24T03:56:47;42.6;37.2;26.6
62981;PMS5003;49075;53.988;27.678;2023-05-24T04:01:36;43.4;37;25.2
62981;PMS5003;49075;53.988;27.678;2023-05-24T04:06:29;39.6;35;23.8
62981;PMS5003;49075;53.988;27.678;2023-05-24T04:11:37;39.4;34.8;25
62981;PMS5003;49075;53.988;27.678;2023-05-24T04:16:51;40.6;34.6;24.4
62981;PMS5003;49075;53.988;27.678;2023-05-24T04:21:29;42;36.4;25.4
62981;PMS5003;49075;53.988;27.678;2023-05-24T04:26:29;38;34.6;23.6
62981;PMS5003;49075;53.988;27.678;2023-05-24T04:31:29;41.8;37;25.6
62981;PMS5003;49075;53.988;27.678;2023-05-24T04:36:29;41.4;36.4;25.2
62981;PMS5003;49075;53.988;27.678;2023-05-24T04:41:45;42.4;35.6;25
62981;PMS5003;49075;53.988;27.678;2023-05-24T04:46:43;41.6;35.6;25.2
62981;PMS5003;49075;53.988;27.678;2023-05-24T04:51:33;40;35;25.3
62981;PMS5003;49075;53.988;27.678;2023-05-24T04:56:57;37.6;33.8;23.4
62981;PMS5003;49075;53.988;27.678;2023-05-24T05:01:45;43;37;25.4
62981;PMS5003;49075;53.988;27.678;2023-05-24T05:06:33;41;35.4;24.6
62981;PMS5003;49075;53.988;27.678;2023-05-24T05:11:33;40.8;36;25.4
62981;PMS5003;49075;53.988;27.678;2023-05-24T05:16:33;41.2;35.6;25.2
62981;PMS5003;49075;53.988;27.678;2023-05-24T05:21:43;43;37.2;26
62981;PMS5003;49075;53.988;27.678;2023-05-24T05:26:33;37;32.8;23
62981;PMS5003;49075;53.988;27.678;2023-05-24T05:31:57;38;33.6;23.2
62981;PMS5003;49075;53.988;27.678;2023-05-24T05:37:05;38.6;33.6;23.2
62981;PMS5003;49075;53.988;27.678;2023-05-24T05:41:39;38.6;33.8;24.8
62981;PMS5003;49075;53.988;27.678;2023-05-24T05:46:51;42.2;36.6;25.8
62981;PMS5003;49075;53.988;27.678;2023-05-24T05:51:43;37;33.3;23.3
62981;PMS5003;49075;53.988;27.678;2023-05-24T05:56:45;53.6;44.6;30.8
62981;PMS5003;49075;53.988;27.678;2023-05-24T06:01:33;43.4;37.2;25.8
62981;PMS5003;49075;53.988;27.678;2023-05-24T06:06:33;38.8;34.4;23.8
62981;PMS5003;49075;53.988;27.678;2023-05-24T06:11:33;38.4;34;23.6
62981;PMS5003;49075;53.988;27.678;2023-05-24T06:16:33;38.4;34.4;24.2
62981;PMS5003;49075;53.988;27.678;2023-05-24T06:21:41;47.8;40.4;27.8
62981;PMS5003;49075;53.988;27.678;2023-05-24T06:26:59;44;37.8;26.2
62981;PMS5003;49075;53.988;27.678;2023-05-24T06:32:15;36.6;32.8;23.2
62981;PMS5003;49075;53.988;27.678;2023-05-24T06:36:33;34.2;31.6;22.8
62981;PMS5003;49075;53.988;27.678;2023-05-24T06:41:33;36.6;32.8;23
62981;PMS5003;49075;53.988;27.678;2023-05-24T06:46:33;33.6;31.2;22
62981;PMS5003;49075;53.988;27.678;2023-05-24T06:51:33;32.6;30.2;21
62981;PMS5003;49075;53.988;27.678;2023-05-24T06:56:33;37.8;33.5;23.3
62981;PMS5003;49075;53.988;27.678;2023-05-24T07:02:03;32.4;29.6;20.8
62981;PMS5003;49075;53.988;27.678;2023-05-24T07:06:33;34.2;31.6;22.8
62981;PMS5003;49075;53.988;27.678;2023-05-24T07:11:33;35.2;32.4;23.6
62981;PMS5003;49075;53.988;27.678;2023-05-24T07:16:53;34.8;32;23.2
62981;PMS5003;49075;53.988;27.678;2023-05-24T07:21:45;33.2;31.2;23
62981;PMS5003;49075;53.988;27.678;2023-05-24T07:26:45;31.6;30.4;22.2
62981;PMS5003;49075;53.988;27.678;2023-05-24T07:31:33;31.2;29.4;22.4
62981;PMS5003;49075;53.988;27.678;2023-05-24T07:36:33;33.6;31.6;23.6
62981;PMS5003;49075;53.988;27.678;2023-05-24T07:42:19;34;31.6;23.8
62981;PMS5003;49075;53.988;27.678;2023-05-24T07:47:03;32.2;30.2;22.6
62981;PMS5003;49075;53.988;27.678;2023-05-24T07:51:55;28.6;27.6;21.2
62981;PMS5003;49075;53.988;27.678;2023-05-24T07:56:33;24.3;23.8;20
62981;PMS5003;49075;53.988;27.678;2023-05-24T08:02:05;30.2;28.6;22.4
62981;PMS5003;49075;53.988;27.678;2023-05-24T08:06:43;26.8;26.4;21
62981;PMS5003;49075;53.988;27.678;2023-05-24T08:11:51;26.2;24.2;19.4
62981;PMS5003;49075;53.988;27.678;2023-05-24T08:16:45;25.8;25.4;20
62981;PMS5003;49075;53.988;27.678;2023-05-24T08:21:55;28.8;27.4;20.8
62981;PMS5003;49075;53.988;27.678;2023-05-24T08:26:33;27.8;26.8;20
62981;PMS5003;49075;53.988;27.678;2023-05-24T08:31:59;22.8;21.8;16.6
62981;PMS5003;49075;53.988;27.678;2023-05-24T08:36:33;27.4;26.8;19.8
62981;PMS5003;49075;53.988;27.678;2023-05-24T08:41:43;26;25.6;19
62981;PMS5003;49075;53.988;27.678;2023-05-24T08:46:45;25.6;25.2;19.2
62981;PMS5003;49075;53.988;27.678;2023-05-24T08:51:49;28.8;27.2;20
62981;PMS5003;49075;53.988;27.678;2023-05-24T08:56:43;25.5;24.5;19.5
62981;PMS5003;49075;53.988;27.678;2023-05-24T09:01:33;24;22.6;17.6
62981;PMS5003;49075;53.988;27.678;2023-05-24T09:06:45;25;24.2;19.2
62981;PMS5003;49075;53.988;27.678;2023-05-24T09:11:58;28.2;27.8;20.2
62981;PMS5003;49075;53.988;27.678;2023-05-24T09:16:45;25.6;24.6;19
62981;PMS5003;49075;53.988;27.678;2023-05-24T09:21:33;32.4;30.6;22.2
62981;PMS5003;49075;53.988;27.678;2023-05-24T09:27:13;26.2;24.8;18.4
62981;PMS5003;49075;53.988;27.678;2023-05-24T09:31:33;28;27;20.8
62981;PMS5003;49075;53.988;27.678;2023-05-24T09:36:45;27.4;27.2;20.4
62981;PMS5003;49075;53.988;27.678;2023-05-24T09:41:42;26.6;25.6;19.4
62981;PMS5003;49075;53.988;27.678;2023-05-24T09:46:49;27.2;25.4;18.6
62981;PMS5003;49075;53.988;27.678;2023-05-24T09:51:45;28.2;27.6;19.6
62981;PMS5003;49075;53.988;27.678;2023-05-24T09:56:33;26.3;25;18.3
62981;PMS5003;49075;53.988;27.678;2023-05-24T10:01:43;25.8;24.8;18.6
62981;PMS5003;49075;53.988;27.678;2023-05-24T10:06:45;27.6;26.8;19.6
62981;PMS5003;49075;53.988;27.678;2023-05-24T10:11:33;32.6;31;21.4
62981;PMS5003;49075;53.988;27.678;2023-05-24T10:17:19;26.8;26.4;19
62981;PMS5003;49075;53.988;27.678;2023-05-24T10:21:33;27.6;27;20.2
62981;PMS5003;49075;53.988;27.678;2023-05-24T10:26:33;30.8;29.4;21.8
62981;PMS5003;49075;53.988;27.678;2023-05-24T10:31:35;31.2;29.2;20.4
62981;PMS5003;49075;53.988;27.678;2023-05-24T10:36:43;29.8;28;20.2
62981;PMS5003;49075;53.988;27.678;2023-05-24T10:41:37;28.2;27.8;20.6
62981;PMS5003;49075;53.988;27.678;2023-05-24T10:47:09;29.2;28.2;20.2
62981;PMS5003;49075;53.988;27.678;2023-05-24T10:51:47;32;30.2;22
62981;PMS5003;49075;53.988;27.678;2023-05-24T10:56:45;27.2;26.4;19
62981;PMS5003;49075;53.988;27.678;2023-05-24T11:01:53;29.5;28;20.5
62981;PMS5003;49075;53.988;27.678;2023-05-24T11:06:48;28;26.8;19.8
62981;PMS5003;49075;53.988;27.678;2023-05-24T11:11:45;30.4;29;21
62981;PMS5003;49075;53.988;27.678;2023-05-24T11:16:45;26.6;25.4;19
62981;PMS5003;49075;53.988;27.678;2023-05-24T11:21:39;30.4;29.6;21.2
62981;PMS5003;49075;53.988;27.678;2023-05-24T11:26:43;31.4;29.8;22
62981;PMS5003;49075;53.988;27.678;2023-05-24T11:31:33;27;25.6;19.4
62981;PMS5003;49075;53.988;27.678;2023-05-24T11:36:39;28.2;26.6;19.4
62981;PMS5003;49075;53.988;27.678;2023-05-24T11:41:34;28.4;27.4;20
62981;PMS5003;49075;53.988;27.678;2023-05-24T11:46:33;28.5;28;20.8
62981;PMS5003;49075;53.988;27.678;2023-05-24T11:51:33;27.5;26.8;19.8
62981;PMS5003;49075;53.988;27.678;2023-05-24T11:56:39;26.6;25.8;19
62981;PMS5003;49075;53.988;27.678;2023-05-24T12:01:33;25.2;24.8;18.4
62981;PMS5003;49075;53.988;27.678;2023-05-24T12:06:45;26.8;26.2;19.4
62981;PMS5003;49075;53.988;27.678;2023-05-24T12:11:39;26.6;25.8;19.6
62981;PMS5003;49075;53.988;27.678;2023-05-24T12:16:34;27;26.4;19.2
62981;PMS5003;49075;53.988;27.678;2023-05-24T12:21:33;30.4;28.8;21.2
62981;PMS5003;49075;53.988;27.678;2023-05-24T12:26:56;27.4;26.2;19.8
62981;PMS5003;49075;53.988;27.678;2023-05-24T12:32:24;29;27.8;20
62981;PMS5003;49075;53.988;27.678;2023-05-24T12:36:33;30.6;29;21
62981;PMS5003;49075;53.988;27.678;2023-05-24T12:41:57;28;26.8;19.6
62981;PMS5003;49075;53.988;27.678;2023-05-24T12:46:33;25.2;25;18.4
62981;PMS5003;49075;53.988;27.678;2023-05-24T12:52:19;27.3;26.5;20.5
62981;PMS5003;49075;53.988;27.678;2023-05-24T12:56:45;28.8;27.4;20
62981;PMS5003;49075;53.988;27.678;2023-05-24T13:01:39;30.8;29;20.4
62981;PMS5003;49075;53.988;27.678;2023-05-24T13:06:33;27.4;26.8;20.4
62981;PMS5003;49075;53.988;27.678;2023-05-24T13:11:51;27.4;27;20
62981;PMS5003;49075;53.988;27.678;2023-05-24T13:16:49;26.6;25.8;18.8
62981;PMS5003;49075;53.988;27.678;2023-05-24T13:21:33;24.8;24;18.2
62981;PMS5003;49075;53.988;27.678;2023-05-24T13:26:55;27.6;26.4;20
62981;PMS5003;49075;53.988;27.678;2023-05-24T13:32:09;30;28;20.6
62981;PMS5003;49075;53.988;27.678;2023-05-24T13:36:41;26.8;26.4;19.4
62981;PMS5003;49075;53.988;27.678;2023-05-24T13:41:33;30.8;29.8;21
62981;PMS5003;49075;53.988;27.678;2023-05-24T13:46:47;29;27.4;19.8
62981;PMS5003;49075;53.988;27.678;2023-05-24T13:51:41;30;28.8;21.3
62981;PMS5003;49075;53.988;27.678;2023-05-24T13:56:43;27.8;26.6;19.8
62981;PMS5003;49075;53.988;27.678;2023-05-24T14:01:33;28.4;27.4;20.4
62981;PMS5003;49075;53.988;27.678;2023-05-24T14:06:39;29.2;28;20.6
62981;PMS5003;49075;53.988;27.678;2023-05-24T14:11:43;28.4;28.2;21.4
62981;PMS5003;49075;53.988;27.678;2023-05-24T14:17:01;25.4;24.6;18.8
62981;PMS5003;49075;53.988;27.678;2023-05-24T14:21:33;27.8;26.6;18.8
62981;PMS5003;49075;53.988;27.678;2023-05-24T14:27:11;28.8;28;21.8
62981;PMS5003;49075;53.988;27.678;2023-05-24T14:31:45;28.8;28.2;20.2
62981;PMS5003;49075;53.988;27.678;2023-05-24T14:36:47;35.6;32.4;22.8
62981;PMS5003;49075;53.988;27.678;2023-05-24T14:41:49;30.2;29.4;21.8
62981;PMS5003;49075;53.988;27.678;2023-05-24T14:46:47;27.8;25.8;19.4
62981;PMS5003;49075;53.988;27.678;2023-05-24T14:51:46;27.4;26.6;21.2
62981;PMS5003;49075;53.988;27.678;2023-05-24T14:56:51;31.3;28.8;21.5
62981;PMS5003;49075;53.988;27.678;2023-05-24T15:01:43;48;42.4;28.2
62981;PMS5003;49075;53.988;27.678;2023-05-24T15:06:33;30;28.2;20.6
62981;PMS5003;49075;53.988;27.678;2023-05-24T15:11:33;27.8;27.4;20.2
62981;PMS5003;49075;53.988;27.678;2023-05-24T15:16:33;35;31.6;22.8
62981;PMS5003;49075;53.988;27.678;2023-05-24T15:21:33;35.8;32.8;23.6
62981;PMS5003;49075;53.988;27.678;2023-05-24T15:26:51;47.8;40.8;28
62981;PMS5003;49075;53.988;27.678;2023-05-24T15:32:07;29;27.8;19.4
62981;PMS5003;49075;53.988;27.678;2023-05-24T15:36:49;29.4;28.6;20.4
62981;PMS5003;49075;53.988;27.678;2023-05-24T15:41:33;31.2;28.8;21.2
62981;PMS5003;49075;53.988;27.678;2023-05-24T15:46:39;42;35.8;25.3
62981;PMS5003;49075;53.988;27.678;2023-05-24T15:52:19;31;29;21.4
62981;PMS5003;49075;53.988;27.678;2023-05-24T15:56:59;30;29;20.8
62981;PMS5003;49075;53.988;27.678;2023-05-24T16:01:45;31.8;30;21.4
62981;PMS5003;49075;53.988;27.678;2023-05-24T16:06:33;26;25.4;18.4
62981;PMS5003;49075;53.988;27.678;2023-05-24T16:11:57;33.4;30.2;21.8
62981;PMS5003;49075;53.988;27.678;2023-05-24T16:16:33;28.6;27.8;19.8
62981;PMS5003;49075;53.988;27.678;2023-05-24T16:21:49;30.6;29.4;20.4
62981;PMS5003;49075;53.988;27.678;2023-05-24T16:27:11;64;57.4;37.6
62981;PMS5003;49075;53.988;27.678;2023-05-24T16:31:33;52.2;47;32.2
62981;PMS5003;49075;53.988;27.678;2023-05-24T16:36:53;35;31.4;22
62981;PMS5003;49075;53.988;27.678;2023-05-24T16:41:43;34.3;31.5;22.5
62981;PMS5003;49075;53.988;27.678;2023-05-24T16:46:33;36.6;33.2;23.6
62981;PMS5003;49075;53.988;27.678;2023-05-24T16:51:45;31.4;29.8;21.4
62981;PMS5003;49075;53.988;27.678;2023-05-24T16:56:55;36.4;33;23.2
62981;PMS5003;49075;53.988;27.678;2023-05-24T17:01:45;52.6;46.4;31.8
62981;PMS5003;49075;53.988;27.678;2023-05-24T17:06:59;103.6;93.8;59.2
62981;PMS5003;49075;53.988;27.678;2023-05-24T17:12:07;47.2;40.2;27.4
62981;PMS5003;49075;53.988;27.678;2023-05-24T17:16:45;48.6;41.4;28.6
62981;PMS5003;49075;53.988;27.678;2023-05-24T17:21:45;46;38.8;26.6
62981;PMS5003;49075;53.988;27.678;2023-05-24T17:26:33;47.2;39.6;27.6
62981;PMS5003;49075;53.988;27.678;2023-05-24T17:31:33;51.8;46.2;30.8
62981;PMS5003;49075;53.988;27.678;2023-05-24T17:36:45;96.2;90.4;57
62981;PMS5003;49075;53.988;27.678;2023-05-24T17:41:45;59;47.8;32.5
62981;PMS5003;49075;53.988;27.678;2023-05-24T17:46:33;35.8;32.6;22.8
62981;PMS5003;49075;53.988;27.678;2023-05-24T17:51:45;65.6;58;37.2
62981;PMS5003;49075;53.988;27.678;2023-05-24T17:56:53;93.6;83.6;50.6
62981;PMS5003;49075;53.988;27.678;2023-05-24T18:01:53;54.4;45.8;30.4
62981;PMS5003;49075;53.988;27.678;2023-05-24T18:06:49;48.2;40.6;27
62981;PMS5003;49075;53.988;27.678;2023-05-24T18:11:33;44.4;38.4;26.4
62981;PMS5003;49075;53.988;27.678;2023-05-24T18:16:51;46.4;39.4;27
62981;PMS5003;49075;53.988;27.678;2023-05-24T18:21:55;42.2;36.4;25.6
62981;PMS5003;49075;53.988;27.678;2023-05-24T18:26:45;44.6;37.6;26.6
62981;PMS5003;49075;53.988;27.678;2023-05-24T18:31:31;42.8;36.8;25.2
62981;PMS5003;49075;53.988;27.678;2023-05-24T18:36:31;50;42.4;28.6
62981;PMS5003;49075;53.988;27.678;2023-05-24T18:41:55;61.5;50;33.3
62981;PMS5003;49075;53.988;27.678;2023-05-24T18:46:55;56;46;31
62981;PMS5003;49075;53.988;27.678;2023-05-24T18:51:31;56.8;46.4;31.4
62981;PMS5003;49075;53.988;27.678;2023-05-24T18:56:31;51;42.8;28.8
62981;PMS5003;49075;53.988;27.678;2023-05-24T19:01:45;52.4;43.6;29.6
62981;PMS5003;49075;53.988;27.678;2023-05-24T19:06:45;46.2;39;26.8
62981;PMS5003;49075;53.988;27.678;2023-05-24T19:11:55;70.4;62.4;40.6
62981;PMS5003;49075;53.988;27.678;2023-05-24T19:16:33;61.6;53.8;35
62981;PMS5003;49075;53.988;27.678;2023-05-24T19:21:49;45;38.6;26.8
62981;PMS5003;49075;53.988;27.678;2023-05-24T19:26:59;47.6;39.4;27
62981;PMS5003;49075;53.988;27.678;2023-05-24T19:31:33;44.8;38.2;26.8
62981;PMS5003;49075;53.988;27.678;2023-05-24T19:37:09;39.8;35.4;24.6
62981;PMS5003;49075;53.988;27.678;2023-05-24T19:41:53;48.6;41.2;28.2
62981;PMS5003;49075;53.988;27.678;2023-05-24T19:46:33;44.5;38.3;26.3
62981;PMS5003;49075;53.988;27.678;2023-05-24T19:51:45;47.4;39.8;27.6
62981;PMS5003;49075;53.988;27.678;2023-05-24T19:56:43;46;39.8;27.4
62981;PMS5003;49075;53.988;27.678;2023-05-24T20:01:49;48.6;40.4;27.8
62981;PMS5003;49075;53.988;27.678;2023-05-24T20:06:55;46.8;40;27
62981;PMS5003;49075;53.988;27.678;2023-05-24T20:11:39;47;40.2;27.6
62981;PMS5003;49075;53.988;27.678;2023-05-24T20:16:43;46.6;39.8;27.2
62981;PMS5003;49075;53.988;27.678;2023-05-24T20:21:59;44.2;38;26.8
62981;PMS5003;49075;53.988;27.678;2023-05-24T20:27:03;46;38.6;26.4
62981;PMS5003;49075;53.988;27.678;2023-05-24T20:31:33;51.8;43;29
62981;PMS5003;49075;53.988;27.678;2023-05-24T20:36:33;53;43.2;29.4
62981;PMS5003;49075;53.988;27.678;2023-05-24T20:41:45;51.6;43.4;29
62981;PMS5003;49075;53.988;27.678;2023-05-24T20:47:05;47.3;39.8;27
62981;PMS5003;49075;53.988;27.678;2023-05-24T20:51:55;46.8;39.6;27.2
62981;PMS5003;49075;53.988;27.678;2023-05-24T20:56:59;45;38.4;26.2
62981;PMS5003;49075;53.988;27.678;2023-05-24T21:01:45;47.4;39.4;27
62981;PMS5003;49075;53.988;27.678;2023-05-24T21:06:49;48;40.8;27.6
62981;PMS5003;49075;53.988;27.678;2023-05-24T21:12:03;47.6;40;27.8
62981;PMS5003;49075;53.988;27.678;2023-05-24T21:16:33;47.6;40.2;27.8
62981;PMS5003;49075;53.988;27.678;2023-05-24T21:21:59;49.6;42;28.8
62981;PMS5003;49075;53.988;27.678;2023-05-24T21:26:53;49.6;42;28.8
62981;PMS5003;49075;53.988;27.678;2023-05-24T21:31:33;47.8;40.6;27.4
62981;PMS5003;49075;53.988;27.678;2023-05-24T21:36:53;48.6;41;28.4
62981;PMS5003;49075;53.988;27.678;2023-05-24T21:41:43;44.6;38;26
62981;PMS5003;49075;53.988;27.678;2023-05-24T21:46:51;49.8;42;28.5
62981;PMS5003;49075;53.988;27.678;2023-05-24T21:51:33;48.4;41;27.6
62981;PMS5003;49075;53.988;27.678;2023-05-24T21:56:43;51.2;42;28.6
62981;PMS5003;49075;53.988;27.678;2023-05-24T22:01:33;47.4;39.8;27.2
62981;PMS5003;49075;53.988;27.678;2023-05-24T22:06:57;51.2;43.2;28.6
62981;PMS5003;49075;53.988;27.678;2023-05-24T22:11:31;48.4;40.6;28.2
62981;PMS5003;49075;53.988;27.678;2023-05-24T22:16:43;46.4;39;27
62981;PMS5003;49075;53.988;27.678;2023-05-24T22:21:43;46.6;39.4;26.4
62981;PMS5003;49075;53.988;27.678;2023-05-24T22:26:31;51.4;42.6;28.4
62981;PMS5003;49075;53.988;27.678;2023-05-24T22:31:41;51.6;42.6;29.4
62981;PMS5003;49075;53.988;27.678;2023-05-24T22:36:31;50.6;42.2;29.2
62981;PMS5003;49075;53.988;27.678;2023-05-24T22:41:31;49.4;41.6;28.2
62981;PMS5003;49075;53.988;27.678;2023-05-24T22:46:41;50.5;42.5;29.3
62981;PMS5003;49075;53.988;27.678;2023-05-24T22:51:55;48.6;41.2;28.4
62981;PMS5003;49075;53.988;27.678;2023-05-24T22:56:31;49.4;41.2;27.8
62981;PMS5003;49075;53.988;27.678;2023-05-24T23:01:31;48.2;40.2;27.8
62981;PMS5003;49075;53.988;27.678;2023-05-24T23:06:43;48.2;40.6;27.2
62981;PMS5003;49075;53.988;27.678;2023-05-24T23:11:43;44.8;38.2;26.2
62981;PMS5003;49075;53.988;27.678;2023-05-24T23:16:31;46.8;39.8;27.6
62981;PMS5003;49075;53.988;27.678;2023-05-24T23:21:53;49;41.4;28.4
62981;PMS5003;49075;53.988;27.678;2023-05-24T23:26:43;47.2;40.2;27.6
62981;PMS5003;49075;53.988;27.678;2023-05-24T23:31:37;49.4;41;28
62981;PMS5003;49075;53.988;27.678;2023-05-24T23:36:31;51.8;43.4;30
62981;PMS5003;49075;53.988;27.678;2023-05-24T23:41:31;51;43;28.6
62981;PMS5003;49075;53.988;27.678;2023-05-24T23:46:31;52.5;43.5;29
62981;PMS5003;49075;53.988;27.678;2023-05-24T23:51:47;50;42;28.8
62981;PMS5003;49075;53.988;27.678;2023-05-24T23:56:43;50.6;42.6;29.6
